sensor_id;sensor_type;location;lat;lon;timestamp;P1;durP1;ratioP1;P2;durP2;ratioP2
55678;SDS011;41573;51.446;-2.018;2023-04-24T00:01:04;12.52;;;6.28;;
55678;SDS011;41573;51.446;-2.018;2023-04-24T00:03:32;15.07;;;7.30;;
55678;SDS011;41573;51.446;-2.018;2023-04-24T00:05:57;14.65;;;6.45;;
55678;SDS011;41573;51.446;-2.018;2023-04-24T00:08:24;11.88;;;7.07;;
55678;SDS011;41573;51.446;-2.018;2023-04-24T00:10:50;15.15;;;7.28;;
55678;SDS011;41573;51.446;-2.018;2023-04-24T00:13:17;16.20;;;6.30;;
55678;SDS011;41573;51.446;-2.018;2023-04-24T00:15:42;12.52;;;6.32;;
55678;SDS011;41573;51.446;-2.018;2023-04-24T00:18:07;13.77;;;6.13;;
55678;SDS011;41573;51.446;-2.018;2023-04-24T00:20:33;14.30;;;6.85;;
55678;SDS011;41573;51.446;-2.018;2023-04-24T00:23:00;14.60;;;6.60;;
55678;SDS011;41573;51.446;-2.018;2023-04-24T00:25:28;13.55;;;5.63;;
55678;SDS011;41573;51.446;-2.018;2023-04-24T00:27:53;11.88;;;5.38;;
55678;SDS011;41573;51.446;-2.018;2023-04-24T00:30:19;16.77;;;7.00;;
55678;SDS011;41573;51.446;-2.018;2023-04-24T00:32:44;18.77;;;6.10;;
55678;SDS011;41573;51.446;-2.018;2023-04-24T00:35:33;13.95;;;6.47;;
55678;SDS011;41573;51.446;-2.018;2023-04-24T00:37:59;13.27;;;5.60;;
55678;SDS011;41573;51.446;-2.018;2023-04-24T00:40:25;12.30;;;6.18;;
55678;SDS011;41573;51.446;-2.018;2023-04-24T00:42:52;14.27;;;6.55;;
55678;SDS011;41573;51.446;-2.018;2023-04-24T00:45:17;16.70;;;5.50;;
55678;SDS011;41573;51.446;-2.018;2023-04-24T00:47:46;11.75;;;4.88;;
55678;SDS011;41573;51.446;-2.018;2023-04-24T00:50:17;15.18;;;6.53;;
55678;SDS011;41573;51.446;-2.018;2023-04-24T00:52:53;13.65;;;6.15;;
55678;SDS011;41573;51.446;-2.018;2023-04-24T00:55:22;11.32;;;5.85;;
55678;SDS011;41573;51.446;-2.018;2023-04-24T00:57:47;16.88;;;5.78;;
55678;SDS011;41573;51.446;-2.018;2023-04-24T01:00:16;14.57;;;6.20;;
55678;SDS011;41573;51.446;-2.018;2023-04-24T01:02:42;13.25;;;6.53;;
55678;SDS011;41573;51.446;-2.018;2023-04-24T01:05:12;14.32;;;6.20;;
55678;SDS011;41573;51.446;-2.018;2023-04-24T01:07:43;14.20;;;6.20;;
55678;SDS011;41573;51.446;-2.018;2023-04-24T01:10:11;12.93;;;6.00;;
55678;SDS011;41573;51.446;-2.018;2023-04-24T01:12:38;14.75;;;6.20;;
55678;SDS011;41573;51.446;-2.018;2023-04-24T01:15:07;13.02;;;6.25;;
55678;SDS011;41573;51.446;-2.018;2023-04-24T01:17:36;12.95;;;6.53;;
55678;SDS011;41573;51.446;-2.018;2023-04-24T01:20:11;16.13;;;7.40;;
55678;SDS011;41573;51.446;-2.018;2023-04-24T01:22:38;13.18;;;6.03;;
55678;SDS011;41573;51.446;-2.018;2023-04-24T01:25:03;12.55;;;6.57;;
55678;SDS011;41573;51.446;-2.018;2023-04-24T01:27:30;15.18;;;6.97;;
55678;SDS011;41573;51.446;-2.018;2023-04-24T01:29:55;14.65;;;7.30;;
55678;SDS011;41573;51.446;-2.018;2023-04-24T01:32:24;11.95;;;6.28;;
55678;SDS011;41573;51.446;-2.018;2023-04-24T01:34:53;14.65;;;6.43;;
55678;SDS011;41573;51.446;-2.018;2023-04-24T01:37:20;16.17;;;7.13;;
55678;SDS011;41573;51.446;-2.018;2023-04-24T01:39:46;16.33;;;7.63;;
55678;SDS011;41573;51.446;-2.018;2023-04-24T01:42:13;16.05;;;7.15;;
55678;SDS011;41573;51.446;-2.018;2023-04-24T01:44:42;19.08;;;6.30;;
55678;SDS011;41573;51.446;-2.018;2023-04-24T01:47:08;15.65;;;7.47;;
55678;SDS011;41573;51.446;-2.018;2023-04-24T01:49:33;16.83;;;6.20;;
55678;SDS011;41573;51.446;-2.018;2023-04-24T01:52:08;15.15;;;6.85;;
55678;SDS011;41573;51.446;-2.018;2023-04-24T01:54:34;16.75;;;6.45;;
55678;SDS011;41573;51.446;-2.018;2023-04-24T01:57:00;18.15;;;7.03;;
55678;SDS011;41573;51.446;-2.018;2023-04-24T01:59:27;16.73;;;6.80;;
55678;SDS011;41573;51.446;-2.018;2023-04-24T02:01:55;16.13;;;6.88;;
55678;SDS011;41573;51.446;-2.018;2023-04-24T02:04:21;17.70;;;6.72;;
55678;SDS011;41573;51.446;-2.018;2023-04-24T02:06:47;17.08;;;5.85;;
55678;SDS011;41573;51.446;-2.018;2023-04-24T02:09:30;18.55;;;6.05;;
55678;SDS011;41573;51.446;-2.018;2023-04-24T02:11:56;15.85;;;6.80;;
55678;SDS011;41573;51.446;-2.018;2023-04-24T02:14:21;14.70;;;6.45;;
55678;SDS011;41573;51.446;-2.018;2023-04-24T02:16:46;14.70;;;6.25;;
55678;SDS011;41573;51.446;-2.018;2023-04-24T02:19:12;12.27;;;5.85;;
55678;SDS011;41573;51.446;-2.018;2023-04-24T02:21:37;11.57;;;5.63;;
55678;SDS011;41573;51.446;-2.018;2023-04-24T02:24:03;17.13;;;5.95;;
55678;SDS011;41573;51.446;-2.018;2023-04-24T02:26:28;16.23;;;6.90;;
55678;SDS011;41573;51.446;-2.018;2023-04-24T02:28:56;17.42;;;6.60;;
55678;SDS011;41573;51.446;-2.018;2023-04-24T02:31:21;13.57;;;6.15;;
55678;SDS011;41573;51.446;-2.018;2023-04-24T02:33:47;13.95;;;6.10;;
55678;SDS011;41573;51.446;-2.018;2023-04-24T02:36:12;11.35;;;5.30;;
55678;SDS011;41573;51.446;-2.018;2023-04-24T02:38:39;14.98;;;6.30;;
55678;SDS011;41573;51.446;-2.018;2023-04-24T02:41:04;14.63;;;6.55;;
55678;SDS011;41573;51.446;-2.018;2023-04-24T02:43:31;16.17;;;6.18;;
55678;SDS011;41573;51.446;-2.018;2023-04-24T02:45:59;13.10;;;5.95;;
55678;SDS011;41573;51.446;-2.018;2023-04-24T02:48:25;14.05;;;6.32;;
55678;SDS011;41573;51.446;-2.018;2023-04-24T02:50:50;11.75;;;5.47;;
55678;SDS011;41573;51.446;-2.018;2023-04-24T02:53:16;15.77;;;5.78;;
55678;SDS011;41573;51.446;-2.018;2023-04-24T02:55:42;12.60;;;5.78;;
55678;SDS011;41573;51.446;-2.018;2023-04-24T02:58:07;13.90;;;6.13;;
55678;SDS011;41573;51.446;-2.018;2023-04-24T03:00:33;11.88;;;5.78;;
55678;SDS011;41573;51.446;-2.018;2023-04-24T03:02:58;12.35;;;5.93;;
55678;SDS011;41573;51.446;-2.018;2023-04-24T03:05:27;11.15;;;5.28;;
55678;SDS011;41573;51.446;-2.018;2023-04-24T03:07:53;12.43;;;5.47;;
55678;SDS011;41573;51.446;-2.018;2023-04-24T03:10:18;13.23;;;5.88;;
55678;SDS011;41573;51.446;-2.018;2023-04-24T03:12:50;14.80;;;5.68;;
55678;SDS011;41573;51.446;-2.018;2023-04-24T03:15:20;10.48;;;5.35;;
55678;SDS011;41573;51.446;-2.018;2023-04-24T03:17:48;10.25;;;5.38;;
55678;SDS011;41573;51.446;-2.018;2023-04-24T03:20:15;15.95;;;6.40;;
55678;SDS011;41573;51.446;-2.018;2023-04-24T03:22:44;17.17;;;6.07;;
55678;SDS011;41573;51.446;-2.018;2023-04-24T03:25:09;13.45;;;5.65;;
55678;SDS011;41573;51.446;-2.018;2023-04-24T03:27:37;12.15;;;5.43;;
55678;SDS011;41573;51.446;-2.018;2023-04-24T03:30:04;13.35;;;5.15;;
55678;SDS011;41573;51.446;-2.018;2023-04-24T03:32:31;8.35;;;4.22;;
55678;SDS011;41573;51.446;-2.018;2023-04-24T03:34:57;10.90;;;5.15;;
55678;SDS011;41573;51.446;-2.018;2023-04-24T03:37:23;10.45;;;5.55;;
55678;SDS011;41573;51.446;-2.018;2023-04-24T03:39:48;9.88;;;4.82;;
55678;SDS011;41573;51.446;-2.018;2023-04-24T03:42:13;11.80;;;4.75;;
55678;SDS011;41573;51.446;-2.018;2023-04-24T03:44:41;15.10;;;5.72;;
55678;SDS011;41573;51.446;-2.018;2023-04-24T03:47:07;8.80;;;4.18;;
55678;SDS011;41573;51.446;-2.018;2023-04-24T03:49:36;11.57;;;6.00;;
55678;SDS011;41573;51.446;-2.018;2023-04-24T03:52:04;11.35;;;4.72;;
55678;SDS011;41573;51.446;-2.018;2023-04-24T03:54:32;10.90;;;5.50;;
55678;SDS011;41573;51.446;-2.018;2023-04-24T03:56:58;13.35;;;5.95;;
55678;SDS011;41573;51.446;-2.018;2023-04-24T03:59:23;11.98;;;4.90;;
55678;SDS011;41573;51.446;-2.018;2023-04-24T04:01:49;11.95;;;5.20;;
55678;SDS011;41573;51.446;-2.018;2023-04-24T04:04:14;11.48;;;5.80;;
55678;SDS011;41573;51.446;-2.018;2023-04-24T04:06:40;11.35;;;4.97;;
55678;SDS011;41573;51.446;-2.018;2023-04-24T04:09:05;13.38;;;6.22;;
55678;SDS011;41573;51.446;-2.018;2023-04-24T04:11:32;11.75;;;5.32;;
55678;SDS011;41573;51.446;-2.018;2023-04-24T04:13:57;8.32;;;4.57;;
55678;SDS011;41573;51.446;-2.018;2023-04-24T04:16:23;14.73;;;6.00;;
55678;SDS011;41573;51.446;-2.018;2023-04-24T04:18:49;12.32;;;5.18;;
55678;SDS011;41573;51.446;-2.018;2023-04-24T04:21:14;9.35;;;4.78;;
55678;SDS011;41573;51.446;-2.018;2023-04-24T04:23:40;10.07;;;4.72;;
55678;SDS011;41573;51.446;-2.018;2023-04-24T04:26:08;12.17;;;5.30;;
55678;SDS011;41573;51.446;-2.018;2023-04-24T04:28:34;10.60;;;5.07;;
55678;SDS011;41573;51.446;-2.018;2023-04-24T04:30:59;8.90;;;4.70;;
55678;SDS011;41573;51.446;-2.018;2023-04-24T04:33:26;9.48;;;5.05;;
55678;SDS011;41573;51.446;-2.018;2023-04-24T04:35:51;12.77;;;5.53;;
55678;SDS011;41573;51.446;-2.018;2023-04-24T04:38:20;9.85;;;5.03;;
55678;SDS011;41573;51.446;-2.018;2023-04-24T04:40:49;9.75;;;5.43;;
55678;SDS011;41573;51.446;-2.018;2023-04-24T04:43:14;12.77;;;5.22;;
55678;SDS011;41573;51.446;-2.018;2023-04-24T04:45:41;13.25;;;5.80;;
55678;SDS011;41573;51.446;-2.018;2023-04-24T04:48:10;12.10;;;4.80;;
55678;SDS011;41573;51.446;-2.018;2023-04-24T04:50:37;10.57;;;5.18;;
55678;SDS011;41573;51.446;-2.018;2023-04-24T04:53:06;10.93;;;5.28;;
55678;SDS011;41573;51.446;-2.018;2023-04-24T04:55:32;11.77;;;5.50;;
55678;SDS011;41573;51.446;-2.018;2023-04-24T04:57:58;12.00;;;5.32;;
55678;SDS011;41573;51.446;-2.018;2023-04-24T05:00:26;11.90;;;5.13;;
55678;SDS011;41573;51.446;-2.018;2023-04-24T05:02:53;8.73;;;4.97;;
55678;SDS011;41573;51.446;-2.018;2023-04-24T05:05:19;11.57;;;5.65;;
55678;SDS011;41573;51.446;-2.018;2023-04-24T05:07:45;10.50;;;4.82;;
55678;SDS011;41573;51.446;-2.018;2023-04-24T05:10:10;15.10;;;6.00;;
55678;SDS011;41573;51.446;-2.018;2023-04-24T05:12:36;12.48;;;5.22;;
55678;SDS011;41573;51.446;-2.018;2023-04-24T05:15:02;13.77;;;6.15;;
55678;SDS011;41573;51.446;-2.018;2023-04-24T05:17:28;12.98;;;5.28;;
55678;SDS011;41573;51.446;-2.018;2023-04-24T05:19:54;11.60;;;5.57;;
55678;SDS011;41573;51.446;-2.018;2023-04-24T05:22:22;10.80;;;5.22;;
55678;SDS011;41573;51.446;-2.018;2023-04-24T05:24:49;11.23;;;5.93;;
55678;SDS011;41573;51.446;-2.018;2023-04-24T05:27:18;11.65;;;5.97;;
55678;SDS011;41573;51.446;-2.018;2023-04-24T05:29:44;18.88;;;6.22;;
55678;SDS011;41573;51.446;-2.018;2023-04-24T05:32:11;10.68;;;5.45;;
55678;SDS011;41573;51.446;-2.018;2023-04-24T05:34:37;11.77;;;5.43;;
55678;SDS011;41573;51.446;-2.018;2023-04-24T05:37:02;14.38;;;5.43;;
55678;SDS011;41573;51.446;-2.018;2023-04-24T05:39:28;15.50;;;5.60;;
55678;SDS011;41573;51.446;-2.018;2023-04-24T05:41:54;12.95;;;6.03;;
55678;SDS011;41573;51.446;-2.018;2023-04-24T05:44:22;8.77;;;5.45;;
55678;SDS011;41573;51.446;-2.018;2023-04-24T05:46:48;12.63;;;5.72;;
55678;SDS011;41573;51.446;-2.018;2023-04-24T05:49:14;16.52;;;6.65;;
55678;SDS011;41573;51.446;-2.018;2023-04-24T05:51:48;15.65;;;5.85;;
55678;SDS011;41573;51.446;-2.018;2023-04-24T05:54:14;13.52;;;5.63;;
55678;SDS011;41573;51.446;-2.018;2023-04-24T05:56:39;12.48;;;5.78;;
55678;SDS011;41573;51.446;-2.018;2023-04-24T05:59:05;13.95;;;6.00;;
55678;SDS011;41573;51.446;-2.018;2023-04-24T06:01:31;8.90;;;5.18;;
55678;SDS011;41573;51.446;-2.018;2023-04-24T06:03:56;12.07;;;5.15;;
55678;SDS011;41573;51.446;-2.018;2023-04-24T06:06:23;11.82;;;5.40;;
55678;SDS011;41573;51.446;-2.018;2023-04-24T06:08:48;11.63;;;4.80;;
55678;SDS011;41573;51.446;-2.018;2023-04-24T06:11:17;11.63;;;5.88;;
55678;SDS011;41573;51.446;-2.018;2023-04-24T06:13:42;12.15;;;5.82;;
55678;SDS011;41573;51.446;-2.018;2023-04-24T06:16:08;15.65;;;6.03;;
55678;SDS011;41573;51.446;-2.018;2023-04-24T06:18:34;14.05;;;5.45;;
55678;SDS011;41573;51.446;-2.018;2023-04-24T06:20:59;13.45;;;6.53;;
55678;SDS011;41573;51.446;-2.018;2023-04-24T06:23:25;12.18;;;6.03;;
55678;SDS011;41573;51.446;-2.018;2023-04-24T06:25:50;16.23;;;6.55;;
55678;SDS011;41573;51.446;-2.018;2023-04-24T06:28:16;16.70;;;7.20;;
55678;SDS011;41573;51.446;-2.018;2023-04-24T06:30:45;13.60;;;7.82;;
55678;SDS011;41573;51.446;-2.018;2023-04-24T06:33:10;15.27;;;7.22;;
55678;SDS011;41573;51.446;-2.018;2023-04-24T06:35:36;13.63;;;6.45;;
55678;SDS011;41573;51.446;-2.018;2023-04-24T06:38:03;14.13;;;6.40;;
55678;SDS011;41573;51.446;-2.018;2023-04-24T06:40:31;17.13;;;6.70;;
55678;SDS011;41573;51.446;-2.018;2023-04-24T06:42:57;16.05;;;6.50;;
55678;SDS011;41573;51.446;-2.018;2023-04-24T06:45:25;13.30;;;6.80;;
55678;SDS011;41573;51.446;-2.018;2023-04-24T06:47:50;12.90;;;6.05;;
55678;SDS011;41573;51.446;-2.018;2023-04-24T06:50:16;16.42;;;7.00;;
55678;SDS011;41573;51.446;-2.018;2023-04-24T06:52:41;22.45;;;7.70;;
55678;SDS011;41573;51.446;-2.018;2023-04-24T06:55:07;16.02;;;7.47;;
55678;SDS011;41573;51.446;-2.018;2023-04-24T06:57:33;20.20;;;6.97;;
55678;SDS011;41573;51.446;-2.018;2023-04-24T06:59:58;15.45;;;6.72;;
55678;SDS011;41573;51.446;-2.018;2023-04-24T07:02:24;14.77;;;6.53;;
55678;SDS011;41573;51.446;-2.018;2023-04-24T07:04:50;13.98;;;6.15;;
55678;SDS011;41573;51.446;-2.018;2023-04-24T07:07:15;17.13;;;6.63;;
55678;SDS011;41573;51.446;-2.018;2023-04-24T07:09:41;13.20;;;7.03;;
55678;SDS011;41573;51.446;-2.018;2023-04-24T07:12:10;14.13;;;7.43;;
55678;SDS011;41573;51.446;-2.018;2023-04-24T07:14:35;14.05;;;7.25;;
55678;SDS011;41573;51.446;-2.018;2023-04-24T07:17:02;14.45;;;6.72;;
55678;SDS011;41573;51.446;-2.018;2023-04-24T07:19:28;17.55;;;6.90;;
55678;SDS011;41573;51.446;-2.018;2023-04-24T07:21:53;12.95;;;6.35;;
55678;SDS011;41573;51.446;-2.018;2023-04-24T07:24:20;13.30;;;6.03;;
55678;SDS011;41573;51.446;-2.018;2023-04-24T07:26:45;12.95;;;5.93;;
55678;SDS011;41573;51.446;-2.018;2023-04-24T07:29:11;14.45;;;5.60;;
55678;SDS011;41573;51.446;-2.018;2023-04-24T07:31:38;9.50;;;5.40;;
55678;SDS011;41573;51.446;-2.018;2023-04-24T07:34:03;11.10;;;5.50;;
55678;SDS011;41573;51.446;-2.018;2023-04-24T07:36:29;12.18;;;5.90;;
55678;SDS011;41573;51.446;-2.018;2023-04-24T07:38:54;9.13;;;4.95;;
55678;SDS011;41573;51.446;-2.018;2023-04-24T07:41:21;10.75;;;5.25;;
55678;SDS011;41573;51.446;-2.018;2023-04-24T07:43:46;12.15;;;5.50;;
55678;SDS011;41573;51.446;-2.018;2023-04-24T07:46:12;9.82;;;4.90;;
55678;SDS011;41573;51.446;-2.018;2023-04-24T07:48:37;9.80;;;4.95;;
55678;SDS011;41573;51.446;-2.018;2023-04-24T07:51:02;8.85;;;5.07;;
55678;SDS011;41573;51.446;-2.018;2023-04-24T07:53:28;11.10;;;4.53;;
55678;SDS011;41573;51.446;-2.018;2023-04-24T07:55:54;10.43;;;5.72;;
55678;SDS011;41573;51.446;-2.018;2023-04-24T07:58:20;10.27;;;5.18;;
55678;SDS011;41573;51.446;-2.018;2023-04-24T08:00:46;8.52;;;4.15;;
55678;SDS011;41573;51.446;-2.018;2023-04-24T08:03:12;8.63;;;4.38;;
55678;SDS011;41573;51.446;-2.018;2023-04-24T08:05:38;10.95;;;5.05;;
55678;SDS011;41573;51.446;-2.018;2023-04-24T08:08:03;11.80;;;5.10;;
55678;SDS011;41573;51.446;-2.018;2023-04-24T08:10:29;10.23;;;5.40;;
55678;SDS011;41573;51.446;-2.018;2023-04-24T08:12:54;14.13;;;4.70;;
55678;SDS011;41573;51.446;-2.018;2023-04-24T08:15:20;9.00;;;4.38;;
55678;SDS011;41573;51.446;-2.018;2023-04-24T08:17:46;12.20;;;4.43;;
55678;SDS011;41573;51.446;-2.018;2023-04-24T08:20:11;7.20;;;4.00;;
55678;SDS011;41573;51.446;-2.018;2023-04-24T08:22:40;7.60;;;4.07;;
55678;SDS011;41573;51.446;-2.018;2023-04-24T08:25:06;8.05;;;4.45;;
55678;SDS011;41573;51.446;-2.018;2023-04-24T08:27:32;8.68;;;4.35;;
55678;SDS011;41573;51.446;-2.018;2023-04-24T08:29:58;6.85;;;3.70;;
55678;SDS011;41573;51.446;-2.018;2023-04-24T08:32:26;8.77;;;4.65;;
55678;SDS011;41573;51.446;-2.018;2023-04-24T08:34:54;10.38;;;4.95;;
55678;SDS011;41573;51.446;-2.018;2023-04-24T08:37:21;9.82;;;4.72;;
55678;SDS011;41573;51.446;-2.018;2023-04-24T08:39:47;7.53;;;3.78;;
55678;SDS011;41573;51.446;-2.018;2023-04-24T08:42:13;10.45;;;4.45;;
55678;SDS011;41573;51.446;-2.018;2023-04-24T08:44:40;9.32;;;4.75;;
55678;SDS011;41573;51.446;-2.018;2023-04-24T08:47:05;8.63;;;4.60;;
55678;SDS011;41573;51.446;-2.018;2023-04-24T08:49:33;9.75;;;3.97;;
55678;SDS011;41573;51.446;-2.018;2023-04-24T08:51:59;10.45;;;4.65;;
55678;SDS011;41573;51.446;-2.018;2023-04-24T08:54:25;8.40;;;4.72;;
55678;SDS011;41573;51.446;-2.018;2023-04-24T08:56:51;8.95;;;4.50;;
55678;SDS011;41573;51.446;-2.018;2023-04-24T08:59:19;9.13;;;4.18;;
55678;SDS011;41573;51.446;-2.018;2023-04-24T09:01:46;9.02;;;3.85;;
55678;SDS011;41573;51.446;-2.018;2023-04-24T09:04:13;10.38;;;4.30;;
55678;SDS011;41573;51.446;-2.018;2023-04-24T09:06:41;8.43;;;4.22;;
55678;SDS011;41573;51.446;-2.018;2023-04-24T09:09:07;8.90;;;4.63;;
55678;SDS011;41573;51.446;-2.018;2023-04-24T09:11:34;8.95;;;4.40;;
55678;SDS011;41573;51.446;-2.018;2023-04-24T09:14:01;7.68;;;4.50;;
55678;SDS011;41573;51.446;-2.018;2023-04-24T09:16:27;8.40;;;4.50;;
55678;SDS011;41573;51.446;-2.018;2023-04-24T09:18:53;7.97;;;4.20;;
55678;SDS011;41573;51.446;-2.018;2023-04-24T09:21:20;8.10;;;4.22;;
55678;SDS011;41573;51.446;-2.018;2023-04-24T09:23:46;7.13;;;3.95;;
55678;SDS011;41573;51.446;-2.018;2023-04-24T09:26:24;9.30;;;4.25;;
55678;SDS011;41573;51.446;-2.018;2023-04-24T09:28:49;9.27;;;4.25;;
55678;SDS011;41573;51.446;-2.018;2023-04-24T09:31:16;7.75;;;3.42;;
55678;SDS011;41573;51.446;-2.018;2023-04-24T09:34:03;6.32;;;3.78;;
55678;SDS011;41573;51.446;-2.018;2023-04-24T09:36:39;8.43;;;4.10;;
55678;SDS011;41573;51.446;-2.018;2023-04-24T09:39:10;6.80;;;3.70;;
55678;SDS011;41573;51.446;-2.018;2023-04-24T09:41:47;6.97;;;3.28;;
55678;SDS011;41573;51.446;-2.018;2023-04-24T09:44:18;6.10;;;2.88;;
55678;SDS011;41573;51.446;-2.018;2023-04-24T09:46:51;6.72;;;3.38;;
55678;SDS011;41573;51.446;-2.018;2023-04-24T09:49:23;7.20;;;3.25;;
55678;SDS011;41573;51.446;-2.018;2023-04-24T09:51:50;5.95;;;3.40;;
55678;SDS011;41573;51.446;-2.018;2023-04-24T09:54:16;6.28;;;3.60;;
55678;SDS011;41573;51.446;-2.018;2023-04-24T09:56:47;10.73;;;4.22;;
55678;SDS011;41573;51.446;-2.018;2023-04-24T09:59:14;8.20;;;4.30;;
55678;SDS011;41573;51.446;-2.018;2023-04-24T10:01:41;5.50;;;3.75;;
55678;SDS011;41573;51.446;-2.018;2023-04-24T10:04:22;10.15;;;3.95;;
55678;SDS011;41573;51.446;-2.018;2023-04-24T10:06:49;6.65;;;3.97;;
55678;SDS011;41573;51.446;-2.018;2023-04-24T10:09:20;7.30;;;4.00;;
55678;SDS011;41573;51.446;-2.018;2023-04-24T10:11:50;10.35;;;3.97;;
55678;SDS011;41573;51.446;-2.018;2023-04-24T10:14:17;8.23;;;4.45;;
55678;SDS011;41573;51.446;-2.018;2023-04-24T10:16:45;6.65;;;3.70;;
55678;SDS011;41573;51.446;-2.018;2023-04-24T10:19:12;7.30;;;4.25;;
55678;SDS011;41573;51.446;-2.018;2023-04-24T10:21:39;8.35;;;4.32;;
55678;SDS011;41573;51.446;-2.018;2023-04-24T10:24:07;5.95;;;3.78;;
55678;SDS011;41573;51.446;-2.018;2023-04-24T10:26:33;10.77;;;4.50;;
55678;SDS011;41573;51.446;-2.018;2023-04-24T10:28:59;8.52;;;4.38;;
55678;SDS011;41573;51.446;-2.018;2023-04-24T10:31:26;7.53;;;4.00;;
55678;SDS011;41573;51.446;-2.018;2023-04-24T10:33:55;8.00;;;4.22;;
55678;SDS011;41573;51.446;-2.018;2023-04-24T10:36:23;8.13;;;4.15;;
55678;SDS011;41573;51.446;-2.018;2023-04-24T10:38:51;8.40;;;4.22;;
55678;SDS011;41573;51.446;-2.018;2023-04-24T10:41:19;8.15;;;4.82;;
55678;SDS011;41573;51.446;-2.018;2023-04-24T10:43:48;9.60;;;4.80;;
55678;SDS011;41573;51.446;-2.018;2023-04-24T10:46:19;9.07;;;4.75;;
55678;SDS011;41573;51.446;-2.018;2023-04-24T10:48:53;8.00;;;4.63;;
55678;SDS011;41573;51.446;-2.018;2023-04-24T10:51:21;8.75;;;3.97;;
55678;SDS011;41573;51.446;-2.018;2023-04-24T10:59:43;7.28;;;4.00;;
55678;SDS011;41573;51.446;-2.018;2023-04-24T11:02:08;9.07;;;4.10;;
55678;SDS011;41573;51.446;-2.018;2023-04-24T11:04:34;10.98;;;3.85;;
55678;SDS011;41573;51.446;-2.018;2023-04-24T11:07:00;8.77;;;4.40;;
55678;SDS011;41573;51.446;-2.018;2023-04-24T11:09:26;7.90;;;3.78;;
55678;SDS011;41573;51.446;-2.018;2023-04-24T11:12:02;7.07;;;3.78;;
55678;SDS011;41573;51.446;-2.018;2023-04-24T11:17:31;7.28;;;4.03;;
55678;SDS011;41573;51.446;-2.018;2023-04-24T11:20:07;8.45;;;4.22;;
55678;SDS011;41573;51.446;-2.018;2023-04-24T11:22:34;7.80;;;4.15;;
55678;SDS011;41573;51.446;-2.018;2023-04-24T11:25:01;8.98;;;4.40;;
55678;SDS011;41573;51.446;-2.018;2023-04-24T11:27:32;8.70;;;4.38;;
55678;SDS011;41573;51.446;-2.018;2023-04-24T11:30:04;8.43;;;4.45;;
55678;SDS011;41573;51.446;-2.018;2023-04-24T11:32:34;8.75;;;4.60;;
55678;SDS011;41573;51.446;-2.018;2023-04-24T11:35:04;7.47;;;4.20;;
55678;SDS011;41573;51.446;-2.018;2023-04-24T11:40:05;10.90;;;4.60;;
55678;SDS011;41573;51.446;-2.018;2023-04-24T11:42:39;12.20;;;5.00;;
55678;SDS011;41573;51.446;-2.018;2023-04-24T11:45:13;7.63;;;4.50;;
55678;SDS011;41573;51.446;-2.018;2023-04-24T11:47:40;7.75;;;4.57;;
55678;SDS011;41573;51.446;-2.018;2023-04-24T11:50:08;9.07;;;5.05;;
55678;SDS011;41573;51.446;-2.018;2023-04-24T11:52:40;8.20;;;4.47;;
55678;SDS011;41573;51.446;-2.018;2023-04-24T11:57:48;11.75;;;5.32;;
55678;SDS011;41573;51.446;-2.018;2023-04-24T12:00:20;13.07;;;6.00;;
55678;SDS011;41573;51.446;-2.018;2023-04-24T12:02:48;10.90;;;6.20;;
55678;SDS011;41573;51.446;-2.018;2023-04-24T12:05:21;11.70;;;5.85;;
55678;SDS011;41573;51.446;-2.018;2023-04-24T12:07:48;14.13;;;5.50;;
55678;SDS011;41573;51.446;-2.018;2023-04-24T12:10:14;15.25;;;5.57;;
55678;SDS011;41573;51.446;-2.018;2023-04-24T12:12:47;13.05;;;5.95;;
55678;SDS011;41573;51.446;-2.018;2023-04-24T12:15:16;10.55;;;5.68;;
55678;SDS011;41573;51.446;-2.018;2023-04-24T12:17:43;18.23;;;5.50;;
55678;SDS011;41573;51.446;-2.018;2023-04-24T12:20:09;12.73;;;5.40;;
55678;SDS011;41573;51.446;-2.018;2023-04-24T12:25:15;20.53;;;6.93;;
55678;SDS011;41573;51.446;-2.018;2023-04-24T12:27:43;13.77;;;6.45;;
55678;SDS011;41573;51.446;-2.018;2023-04-24T12:30:13;12.75;;;5.30;;
55678;SDS011;41573;51.446;-2.018;2023-04-24T12:32:44;17.55;;;6.38;;
55678;SDS011;41573;51.446;-2.018;2023-04-24T12:35:11;15.65;;;7.03;;
55678;SDS011;41573;51.446;-2.018;2023-04-24T12:37:37;16.90;;;6.35;;
55678;SDS011;41573;51.446;-2.018;2023-04-24T12:40:08;16.05;;;5.75;;
55678;SDS011;41573;51.446;-2.018;2023-04-24T12:42:35;13.45;;;5.10;;
55678;SDS011;41573;51.446;-2.018;2023-04-24T12:45:07;12.82;;;5.30;;
55678;SDS011;41573;51.446;-2.018;2023-04-24T12:47:33;9.95;;;4.80;;
55678;SDS011;41573;51.446;-2.018;2023-04-24T12:49:59;11.48;;;4.97;;
55678;SDS011;41573;51.446;-2.018;2023-04-24T12:52:26;14.65;;;5.45;;
55678;SDS011;41573;51.446;-2.018;2023-04-24T12:54:54;10.43;;;4.85;;
55678;SDS011;41573;51.446;-2.018;2023-04-24T12:57:21;15.57;;;4.95;;
55678;SDS011;41573;51.446;-2.018;2023-04-24T12:59:47;10.48;;;4.55;;
55678;SDS011;41573;51.446;-2.018;2023-04-24T13:02:12;10.43;;;4.60;;
55678;SDS011;41573;51.446;-2.018;2023-04-24T13:04:38;12.93;;;4.65;;
55678;SDS011;41573;51.446;-2.018;2023-04-24T13:07:04;9.85;;;5.10;;
55678;SDS011;41573;51.446;-2.018;2023-04-24T13:09:30;13.45;;;4.60;;
55678;SDS011;41573;51.446;-2.018;2023-04-24T13:11:56;12.02;;;4.68;;
55678;SDS011;41573;51.446;-2.018;2023-04-24T13:14:22;9.73;;;4.30;;
55678;SDS011;41573;51.446;-2.018;2023-04-24T13:16:48;10.93;;;4.57;;
55678;SDS011;41573;51.446;-2.018;2023-04-24T13:19:17;13.15;;;4.90;;
55678;SDS011;41573;51.446;-2.018;2023-04-24T13:21:46;12.50;;;5.05;;
55678;SDS011;41573;51.446;-2.018;2023-04-24T13:24:11;10.30;;;4.95;;
55678;SDS011;41573;51.446;-2.018;2023-04-24T13:26:40;8.30;;;4.57;;
55678;SDS011;41573;51.446;-2.018;2023-04-24T13:29:06;10.02;;;4.95;;
55678;SDS011;41573;51.446;-2.018;2023-04-24T13:31:31;16.60;;;5.53;;
55678;SDS011;41573;51.446;-2.018;2023-04-24T13:33:57;11.48;;;5.25;;
55678;SDS011;41573;51.446;-2.018;2023-04-24T13:36:22;9.98;;;5.57;;
55678;SDS011;41573;51.446;-2.018;2023-04-24T13:38:47;15.00;;;5.85;;
55678;SDS011;41573;51.446;-2.018;2023-04-24T13:41:22;12.38;;;5.03;;
55678;SDS011;41573;51.446;-2.018;2023-04-24T13:43:47;14.13;;;5.65;;
55678;SDS011;41573;51.446;-2.018;2023-04-24T13:46:13;14.10;;;4.85;;
55678;SDS011;41573;51.446;-2.018;2023-04-24T13:48:39;13.48;;;6.10;;
55678;SDS011;41573;51.446;-2.018;2023-04-24T13:51:04;12.82;;;5.32;;
55678;SDS011;41573;51.446;-2.018;2023-04-24T13:53:30;14.50;;;5.93;;
55678;SDS011;41573;51.446;-2.018;2023-04-24T13:55:55;15.50;;;5.93;;
55678;SDS011;41573;51.446;-2.018;2023-04-24T13:58:21;14.73;;;5.68;;
55678;SDS011;41573;51.446;-2.018;2023-04-24T14:00:46;12.60;;;6.00;;
55678;SDS011;41573;51.446;-2.018;2023-04-24T14:03:12;10.70;;;4.78;;
55678;SDS011;41573;51.446;-2.018;2023-04-24T14:05:38;13.43;;;5.50;;
55678;SDS011;41573;51.446;-2.018;2023-04-24T14:08:03;12.98;;;4.75;;
55678;SDS011;41573;51.446;-2.018;2023-04-24T14:10:29;12.07;;;5.10;;
55678;SDS011;41573;51.446;-2.018;2023-04-24T14:12:55;13.43;;;5.43;;
55678;SDS011;41573;51.446;-2.018;2023-04-24T14:15:23;10.80;;;5.22;;
55678;SDS011;41573;51.446;-2.018;2023-04-24T14:17:49;12.57;;;5.50;;
55678;SDS011;41573;51.446;-2.018;2023-04-24T14:20:15;9.93;;;5.03;;
55678;SDS011;41573;51.446;-2.018;2023-04-24T14:22:40;10.18;;;4.65;;
55678;SDS011;41573;51.446;-2.018;2023-04-24T14:25:06;10.82;;;4.80;;
55678;SDS011;41573;51.446;-2.018;2023-04-24T14:27:32;11.93;;;4.32;;
55678;SDS011;41573;51.446;-2.018;2023-04-24T14:29:59;12.45;;;4.65;;
55678;SDS011;41573;51.446;-2.018;2023-04-24T14:32:25;8.95;;;5.03;;
55678;SDS011;41573;51.446;-2.018;2023-04-24T14:34:51;9.05;;;4.53;;
55678;SDS011;41573;51.446;-2.018;2023-04-24T14:37:16;12.13;;;4.70;;
55678;SDS011;41573;51.446;-2.018;2023-04-24T14:39:42;10.68;;;4.55;;
55678;SDS011;41573;51.446;-2.018;2023-04-24T14:42:07;9.68;;;5.05;;